createdAt,value
2022-09-26T00:02:20.465Z,13.00
2022-09-26T00:04:53.887Z,12.99
2022-09-26T00:07:29.053Z,12.99
2022-09-26T00:10:02.932Z,13.00
2022-09-26T00:12:36.534Z,13.01
2022-09-26T00:15:10.276Z,13.03
2022-09-26T00:17:43.550Z,13.06
2022-09-26T00:20:16.134Z,13.07
2022-09-26T00:22:48.615Z,13.06
2022-09-26T00:25:21.675Z,13.06
2022-09-26T00:27:55.325Z,13.09
2022-09-26T00:30:29.490Z,13.10
2022-09-26T00:33:02.651Z,13.12
2022-09-26T00:35:35.869Z,13.14
2022-09-26T00:38:08.789Z,13.14
2022-09-26T00:40:42.014Z,13.13
2022-09-26T00:43:42.388Z,13.15
2022-09-26T00:46:38.040Z,13.15
2022-09-26T00:49:33.208Z,13.15
2022-09-26T00:52:33.269Z,13.16
2022-09-26T00:55:07.734Z,13.19
2022-09-26T00:57:47.739Z,13.19
2022-09-26T01:00:20.274Z,13.18
2022-09-26T01:02:52.794Z,13.20
2022-09-26T01:05:30.800Z,13.20
2022-09-26T01:08:04.026Z,13.18
2022-09-26T01:10:36.908Z,13.16
2022-09-26T01:13:09.564Z,13.15
2022-09-26T01:15:42.989Z,13.14
2022-09-26T01:18:16.408Z,13.14
2022-09-26T01:21:13.100Z,13.15
2022-09-26T01:24:05.756Z,13.15
2022-09-26T01:27:09.965Z,13.15
2022-09-26T01:30:45.019Z,13.13
2022-09-26T01:33:55.062Z,13.13
2022-09-26T01:36:50.019Z,13.11
2022-09-26T01:39:33.943Z,13.09
2022-09-26T01:42:30.562Z,13.07
2022-09-26T01:45:15.939Z,13.03
2022-09-26T01:48:10.380Z,13.00
2022-09-26T01:50:51.252Z,12.98
2022-09-26T01:53:32.882Z,12.97
2022-09-26T01:56:13.877Z,12.97
2022-09-26T01:59:01.804Z,12.92
2022-09-26T02:01:39.202Z,12.91
2022-09-26T02:04:15.796Z,12.91
2022-09-26T02:07:07.889Z,12.93
2022-09-26T02:09:59.395Z,12.92
2022-09-26T02:12:36.865Z,12.95
2022-09-26T02:15:16.902Z,12.93
2022-09-26T02:18:21.736Z,12.92
2022-09-26T02:20:58.635Z,12.90
2022-09-26T02:23:31.455Z,12.87
2022-09-26T02:26:03.941Z,12.87
2022-09-26T02:28:37.842Z,12.86
2022-09-26T02:31:10.765Z,12.87
2022-09-26T02:33:43.993Z,12.85
2022-09-26T02:36:18.083Z,12.84
2022-09-26T02:38:51.737Z,12.82
2022-09-26T02:42:16.216Z,12.81
2022-09-26T02:45:30.581Z,12.81
2022-09-26T02:48:19.906Z,12.82
2022-09-26T02:51:24.730Z,12.83
2022-09-26T02:54:11.008Z,12.83
2022-09-26T02:57:25.053Z,12.82
2022-09-26T03:00:31.703Z,12.80
2022-09-26T03:03:20.204Z,12.75
2022-09-26T03:05:56.201Z,12.71
2022-09-26T03:08:31.951Z,12.66
2022-09-26T03:11:06.331Z,12.62
2022-09-26T03:13:41.135Z,12.63
2022-09-26T03:16:15.255Z,12.62
2022-09-26T03:19:20.069Z,12.58
2022-09-26T03:21:52.572Z,12.56
2022-09-26T03:24:28.289Z,12.55
2022-09-26T03:27:03.362Z,12.55
2022-09-26T03:29:37.833Z,12.53
2022-09-26T03:32:12.136Z,12.52
2022-09-26T03:34:45.360Z,12.50
2022-09-26T03:37:18.139Z,12.48
2022-09-26T03:39:51.182Z,12.46
2022-09-26T03:42:25.295Z,12.47
2022-09-26T03:44:59.781Z,12.46
2022-09-26T03:47:38.048Z,12.45
2022-09-26T03:50:10.783Z,12.43
2022-09-26T03:52:43.102Z,12.41
2022-09-26T03:55:15.877Z,12.41
2022-09-26T03:57:50.228Z,12.43
2022-09-26T04:00:25.063Z,12.41
2022-09-26T04:02:57.983Z,12.39
2022-09-26T04:05:31.448Z,12.37
2022-09-26T04:08:04.361Z,12.38
2022-09-26T04:10:38.040Z,12.37
2022-09-26T04:13:16.763Z,12.37
2022-09-26T04:15:46.102Z,12.39
2022-09-26T04:18:18.764Z,12.39
2022-09-26T04:20:52.376Z,12.40
2022-09-26T04:23:28.939Z,12.40
2022-09-26T04:26:11.468Z,12.40
2022-09-26T04:28:45.083Z,12.44
2022-09-26T04:31:18.555Z,12.46
2022-09-26T04:33:54.553Z,12.48
2022-09-26T04:36:28.072Z,12.50
2022-09-26T04:39:01.275Z,12.52
2022-09-26T04:41:34.136Z,12.55
2022-09-26T04:44:06.850Z,12.57
2022-09-26T04:46:39.232Z,12.57
2022-09-26T04:49:12.100Z,12.58
2022-09-26T04:51:45.740Z,12.57
2022-09-26T04:54:18.606Z,12.56
2022-09-26T04:59:36.688Z,12.64
2022-09-26T05:02:10.004Z,12.66
2022-09-26T05:04:43.513Z,12.69
2022-09-26T05:07:18.695Z,12.71
2022-09-26T05:09:53.458Z,12.80
2022-09-26T05:12:28.648Z,12.82
2022-09-26T05:15:01.974Z,12.81
2022-09-26T05:17:39.274Z,12.78
2022-09-26T05:20:13.278Z,12.77
2022-09-26T05:22:59.391Z,12.76
2022-09-26T05:25:56.279Z,12.75
2022-09-26T05:28:29.264Z,12.77
2022-09-26T05:31:03.157Z,12.75
2022-09-26T05:33:37.642Z,12.75
2022-09-26T05:36:11.576Z,12.76
2022-09-26T05:38:44.683Z,12.79
2022-09-26T05:41:18.337Z,12.79
2022-09-26T05:43:51.826Z,12.81
2022-09-26T05:46:25.495Z,12.81
2022-09-26T05:48:58.883Z,12.79
2022-09-26T05:51:33.141Z,12.79
2022-09-26T05:54:06.146Z,12.75
2022-09-26T05:56:40.366Z,12.70
2022-09-26T05:59:12.857Z,12.69
2022-09-26T06:02:05.646Z,12.71
2022-09-26T06:04:40.667Z,12.73
2022-09-26T06:07:16.319Z,12.73
2022-09-26T06:09:49.422Z,12.72
2022-09-26T06:12:41.673Z,12.72
2022-09-26T06:15:15.392Z,12.72
2022-09-26T06:17:48.975Z,12.74
2022-09-26T06:20:22.378Z,12.77
2022-09-26T06:22:55.442Z,12.80
2022-09-26T06:25:28.351Z,12.86
2022-09-26T06:28:02.663Z,12.90
2022-09-26T06:30:57.856Z,12.92
2022-09-26T06:33:33.486Z,12.95
2022-09-26T06:36:12.387Z,12.97
2022-09-26T06:38:47.001Z,12.99
2022-09-26T06:41:21.326Z,12.99
2022-09-26T06:43:54.659Z,12.99
2022-09-26T06:46:46.275Z,13.01
2022-09-26T06:49:20.584Z,13.05
2022-09-26T06:51:54.644Z,13.08
2022-09-26T06:54:27.756Z,13.12
2022-09-26T06:57:01.445Z,13.17
2022-09-26T06:59:35.388Z,13.21
2022-09-26T07:02:11.119Z,13.23
2022-09-26T07:04:46.329Z,13.24
2022-09-26T07:07:23.662Z,13.27
2022-09-26T07:09:56.667Z,13.32
2022-09-26T07:12:47.325Z,13.34
2022-09-26T07:15:21.852Z,13.36
2022-09-26T07:17:57.284Z,13.39
2022-09-26T07:20:48.065Z,13.42
2022-09-26T07:23:24.563Z,13.48
2022-09-26T07:25:58.035Z,13.55
2022-09-26T07:28:31.327Z,13.62
2022-09-26T07:31:03.900Z,13.66
2022-09-26T07:33:50.323Z,13.66
2022-09-26T07:36:23.651Z,13.64
2022-09-26T07:38:58.202Z,13.63
2022-09-26T07:41:31.673Z,13.62
2022-09-26T07:44:53.361Z,13.61
2022-09-26T07:46:57.031Z,13.63
2022-09-26T07:49:47.972Z,13.65
2022-09-26T07:52:22.695Z,13.68
2022-09-26T07:54:56.760Z,13.71
2022-09-26T07:57:29.899Z,13.71
2022-09-26T08:00:21.774Z,13.72
2022-09-26T08:02:56.144Z,13.73
2022-09-26T08:05:30.108Z,13.72
2022-09-26T08:08:04.387Z,13.73
2022-09-26T08:10:39.358Z,13.76
2022-09-26T08:13:26.742Z,13.75
2022-09-26T08:16:09.850Z,13.73
2022-09-26T08:18:46.179Z,13.68
2022-09-26T08:21:19.533Z,13.61
2022-09-26T08:23:53.718Z,13.61
2022-09-26T08:26:27.958Z,13.60
2022-09-26T08:29:02.376Z,13.63
2022-09-26T08:31:37.265Z,13.68
2022-09-26T08:34:10.057Z,13.72
2022-09-26T08:36:44.048Z,13.77
2022-09-26T08:39:24.102Z,13.83
2022-09-26T08:42:25.854Z,13.93
2022-09-26T08:45:57.603Z,14.03
2022-09-26T08:49:28.663Z,14.10
2022-09-26T08:52:03.420Z,14.25
2022-09-26T08:54:42.354Z,14.37
2022-09-26T08:57:54.183Z,14.53
2022-09-26T09:00:29.500Z,14.65
2022-09-26T09:03:23.414Z,14.84
2022-09-26T09:06:11.604Z,15.06
2022-09-26T09:08:51.588Z,15.33
2022-09-26T09:12:00.369Z,15.50
2022-09-26T09:15:25.634Z,15.63
2022-09-26T09:18:35.573Z,15.78
2022-09-26T09:21:50.370Z,15.84
2022-09-26T09:28:26.768Z,16.01
2022-09-26T09:31:07.430Z,15.96
2022-09-26T09:33:53.190Z,15.89
2022-09-26T09:36:44.378Z,15.86
2022-09-26T09:39:39.765Z,15.81
2022-09-26T09:42:39.540Z,15.77
2022-09-26T09:45:17.156Z,15.72
2022-09-26T09:47:50.521Z,15.66
2022-09-26T09:50:49.423Z,15.60
2022-09-26T09:53:56.334Z,15.57
2022-09-26T09:57:22.832Z,15.56
2022-09-26T10:00:25.404Z,15.57
2022-09-26T10:03:12.896Z,15.58
2022-09-26T10:05:50.986Z,15.61
2022-09-26T10:08:40.464Z,15.66
2022-09-26T10:11:43.234Z,15.73
2022-09-26T10:14:58.026Z,15.80
2022-09-26T10:17:36.855Z,15.84
2022-09-26T10:20:46.495Z,15.90
2022-09-26T10:23:35.264Z,16.01
2022-09-26T10:26:11.346Z,16.20
2022-09-26T10:28:58.214Z,16.36
2022-09-26T10:31:41.981Z,16.57
2022-09-26T10:34:28.195Z,16.89
2022-09-26T10:37:35.012Z,17.18
2022-09-26T10:40:27.188Z,17.53
2022-09-26T10:43:23.174Z,17.79
2022-09-26T10:46:13.266Z,17.92
2022-09-26T10:49:05.825Z,18.01
2022-09-26T10:51:45.628Z,18.22
2022-09-26T10:54:23.260Z,18.47
2022-09-26T10:56:57.808Z,18.83
2022-09-26T10:59:34.899Z,19.42
2022-09-26T11:02:08.613Z,20.11
2022-09-26T11:05:07.340Z,20.42
2022-09-26T11:07:50.067Z,20.42
2022-09-26T11:10:33.606Z,20.45
2022-09-26T11:13:25.676Z,20.61
2022-09-26T11:16:02.263Z,21.02
2022-09-26T11:18:49.361Z,21.37
2022-09-26T11:21:35.800Z,21.60
2022-09-26T11:24:40.442Z,21.96
2022-09-26T11:27:41.285Z,22.33
2022-09-26T11:30:21.796Z,22.43
2022-09-26T11:33:00.381Z,22.37
2022-09-26T11:36:11.179Z,22.49
2022-09-26T11:38:50.725Z,22.73
2022-09-26T11:41:45.775Z,23.06
2022-09-26T11:44:51.940Z,23.25
2022-09-26T11:47:41.360Z,23.41
2022-09-26T11:50:36.825Z,23.25
2022-09-26T11:53:33.949Z,22.93
2022-09-26T11:56:20.832Z,22.50
2022-09-26T11:59:36.456Z,22.11
2022-09-26T12:02:38.256Z,21.74
2022-09-26T12:06:01.987Z,21.52
2022-09-26T12:09:14.967Z,21.42
2022-09-26T12:11:54.781Z,21.35
2022-09-26T12:15:15.816Z,21.34
2022-09-26T12:18:21.225Z,21.28
2022-09-26T12:21:09.918Z,21.19
2022-09-26T12:23:59.191Z,21.19
2022-09-26T12:26:57.867Z,21.18
2022-09-26T12:30:00.662Z,21.09
2022-09-26T12:32:46.202Z,20.96
2022-09-26T12:35:42.820Z,20.69
2022-09-26T12:38:27.376Z,20.45
2022-09-26T12:41:35.026Z,20.32
2022-09-26T12:44:47.368Z,20.22
2022-09-26T12:47:52.201Z,20.09
2022-09-26T12:50:50.981Z,20.02
2022-09-26T12:53:52.863Z,19.95
2022-09-26T12:56:54.429Z,19.86
2022-09-26T12:59:52.002Z,19.74
2022-09-26T13:03:16.479Z,19.67
2022-09-26T13:06:15.477Z,19.70
2022-09-26T13:09:11.059Z,19.75
2022-09-26T13:12:18.758Z,19.71
2022-09-26T13:15:31.509Z,19.56
2022-09-26T13:18:23.035Z,19.45
2022-09-26T13:21:19.289Z,19.28
2022-09-26T13:24:05.255Z,19.14
2022-09-26T13:26:45.385Z,19.05
2022-09-26T13:29:26.005Z,19.02
2022-09-26T13:32:23.250Z,18.98
2022-09-26T13:35:04.440Z,18.95
2022-09-26T13:37:42.270Z,18.89
2022-09-26T13:41:04.469Z,18.83
2022-09-26T13:43:56.569Z,18.73
2022-09-26T13:47:08.986Z,18.57
2022-09-26T13:49:55.301Z,18.46
2022-09-26T13:53:07.784Z,18.35
2022-09-26T13:55:41.934Z,18.27
2022-09-26T13:58:26.290Z,18.20
2022-09-26T14:01:00.896Z,18.16
2022-09-26T14:03:41.163Z,18.11
2022-09-26T14:06:18.735Z,18.07
2022-09-26T14:09:20.171Z,18.02
2022-09-26T14:11:55.268Z,17.96
2022-09-26T14:14:40.427Z,17.91
2022-09-26T14:17:47.839Z,17.87
2022-09-26T14:20:28.248Z,17.84
2022-09-26T14:23:02.188Z,17.80
2022-09-26T14:25:51.376Z,17.76
2022-09-26T14:28:44.243Z,17.71
2022-09-26T14:31:36.490Z,17.65
2022-09-26T14:34:25.337Z,17.59
2022-09-26T14:37:02.410Z,17.55
2022-09-26T14:39:42.856Z,17.48
2022-09-26T14:42:35.804Z,17.42
2022-09-26T14:45:19.730Z,17.38
2022-09-26T14:48:09.178Z,17.36
2022-09-26T14:50:58.677Z,17.33
2022-09-26T14:53:51.911Z,17.33
2022-09-26T14:56:45.502Z,17.30
2022-09-26T14:59:40.114Z,17.26
2022-09-26T15:02:38.942Z,17.18
2022-09-26T15:05:26.092Z,17.11
2022-09-26T15:08:00.786Z,17.05
2022-09-26T15:10:44.712Z,17.00
2022-09-26T15:13:39.859Z,16.98
2022-09-26T15:16:27.734Z,16.97
2022-09-26T15:19:29.677Z,16.95
2022-09-26T15:22:18.573Z,16.94
2022-09-26T15:24:57.057Z,16.88
2022-09-26T15:27:32.309Z,16.83
2022-09-26T15:30:20.848Z,16.75
2022-09-26T15:33:02.304Z,16.68
2022-09-26T15:35:35.578Z,16.63
2022-09-26T15:38:13.433Z,16.57
2022-09-26T15:40:46.385Z,16.52
2022-09-26T15:43:21.592Z,16.46
2022-09-26T15:45:59.720Z,16.40
2022-09-26T15:48:34.434Z,16.38
2022-09-26T15:51:38.474Z,16.37
2022-09-26T15:54:22.462Z,16.32
2022-09-26T15:56:53.652Z,16.26
2022-09-26T15:59:41.371Z,16.18
2022-09-26T16:02:27.132Z,16.13
2022-09-26T16:04:59.991Z,16.08
2022-09-26T16:07:33.640Z,16.05
2022-09-26T16:10:28.578Z,16.03
2022-09-26T16:13:01.547Z,15.99
2022-09-26T16:15:34.845Z,15.95
2022-09-26T16:18:26.165Z,15.88
2022-09-26T16:21:23.302Z,15.85
2022-09-26T16:24:05.030Z,15.79
2022-09-26T16:26:43.185Z,15.73
2022-09-26T16:29:19.009Z,15.69
2022-09-26T16:31:52.261Z,15.65
2022-09-26T16:34:46.910Z,15.62
2022-09-26T16:37:20.784Z,15.62
2022-09-26T16:39:59.967Z,15.61
2022-09-26T16:42:33.793Z,15.59
2022-09-26T16:45:09.534Z,15.57
2022-09-26T16:47:47.973Z,15.57
2022-09-26T16:50:29.320Z,15.57
2022-09-26T16:53:06.582Z,15.56
2022-09-26T16:55:39.175Z,15.52
2022-09-26T16:58:13.977Z,15.49
2022-09-26T17:01:05.600Z,15.45
2022-09-26T17:03:40.387Z,15.42
2022-09-26T17:06:13.250Z,15.36
2022-09-26T17:08:48.010Z,15.34
2022-09-26T17:11:21.174Z,15.30
2022-09-26T17:13:54.842Z,15.23
2022-09-26T17:16:30.064Z,15.17
2022-09-26T17:19:03.961Z,15.12
2022-09-26T17:21:36.874Z,15.07
2022-09-26T17:24:26.217Z,15.03
2022-09-26T17:27:07.097Z,15.00
2022-09-26T17:29:44.215Z,14.97
2022-09-26T17:32:36.486Z,14.94
2022-09-26T17:35:27.857Z,14.92
2022-09-26T17:38:01.877Z,14.89
2022-09-26T17:40:35.743Z,14.85
2022-09-26T17:43:08.891Z,14.82
2022-09-26T17:45:51.251Z,14.78
2022-09-26T17:48:31.078Z,14.75
2022-09-26T17:51:04.235Z,14.72
2022-09-26T17:53:49.513Z,14.68
2022-09-26T17:56:18.669Z,14.64
2022-09-26T17:58:52.160Z,14.64
2022-09-26T18:01:28.691Z,14.63
2022-09-26T18:04:04.418Z,14.63
2022-09-26T18:06:37.253Z,14.64
2022-09-26T18:09:12.253Z,14.65
2022-09-26T18:11:46.097Z,14.65
2022-09-26T18:14:18.731Z,14.65
2022-09-26T18:16:51.566Z,14.63
2022-09-26T18:19:24.553Z,14.61
2022-09-26T18:21:59.042Z,14.61
2022-09-26T18:24:31.643Z,14.61
2022-09-26T18:27:06.195Z,14.59
2022-09-26T18:29:41.419Z,14.57
2022-09-26T18:32:24.722Z,14.55
2022-09-26T18:34:59.953Z,14.49
2022-09-26T18:37:33.167Z,14.43
2022-09-26T18:40:06.338Z,14.44
2022-09-26T18:42:39.618Z,14.45
2022-09-26T18:45:15.438Z,14.47
2022-09-26T18:47:49.521Z,14.47
2022-09-26T18:50:38.654Z,14.46
2022-09-26T18:53:20.267Z,14.42
2022-09-26T18:56:10.726Z,14.39
2022-09-26T18:58:44.368Z,14.37
2022-09-26T19:01:34.526Z,14.35
2022-09-26T19:04:09.071Z,14.33
2022-09-26T19:06:42.660Z,14.27
2022-09-26T19:09:21.372Z,14.24
2022-09-26T19:11:54.042Z,14.20
2022-09-26T19:14:29.376Z,14.19
2022-09-26T19:17:03.232Z,14.18
2022-09-26T19:19:37.226Z,14.17
2022-09-26T19:22:31.584Z,14.18
2022-09-26T19:25:04.396Z,14.18
2022-09-26T19:27:52.450Z,14.14
2022-09-26T19:30:26.297Z,14.12
2022-09-26T19:32:59.675Z,14.05
2022-09-26T19:35:42.830Z,14.01
2022-09-26T19:38:26.187Z,13.97
2022-09-26T19:40:59.355Z,13.97
2022-09-26T19:43:32.425Z,13.98
2022-09-26T19:46:06.297Z,13.97
2022-09-26T19:48:40.404Z,13.96
2022-09-26T19:51:14.960Z,13.96
2022-09-26T19:53:47.767Z,13.98
2022-09-26T19:56:21.502Z,14.00
2022-09-26T19:58:54.551Z,13.99
2022-09-26T20:01:27.640Z,13.98
2022-09-26T20:04:00.233Z,13.98
2022-09-26T20:06:33.057Z,13.96
2022-09-26T20:09:11.673Z,13.93
2022-09-26T20:11:45.051Z,13.92
2022-09-26T20:14:23.975Z,13.90
2022-09-26T20:17:03.032Z,13.89
2022-09-26T20:19:41.828Z,13.86
2022-09-26T20:22:23.084Z,13.83
2022-09-26T20:24:55.997Z,13.79
2022-09-26T20:27:29.906Z,13.77
2022-09-26T20:30:21.285Z,13.75
2022-09-26T20:32:53.989Z,13.74
2022-09-26T20:35:33.117Z,13.75
2022-09-26T20:38:07.376Z,13.74
2022-09-26T20:40:40.852Z,13.73
2022-09-26T20:43:18.049Z,13.76
2022-09-26T20:45:50.823Z,13.76
2022-09-26T20:48:26.668Z,13.75
2022-09-26T20:50:59.329Z,13.73
2022-09-26T20:53:32.313Z,13.73
2022-09-26T20:56:06.107Z,13.70
2022-09-26T20:58:38.996Z,13.71
2022-09-26T21:01:16.674Z,13.71
2022-09-26T21:03:55.318Z,13.71
2022-09-26T21:06:31.512Z,13.67
2022-09-26T21:09:05.157Z,13.64
2022-09-26T21:11:37.802Z,13.61
2022-09-26T21:14:11.384Z,13.60
2022-09-26T21:16:53.918Z,13.58
2022-09-26T21:19:28.500Z,13.54
2022-09-26T21:22:03.083Z,13.54
2022-09-26T21:24:46.310Z,13.53
2022-09-26T21:27:19.202Z,13.53
2022-09-26T21:29:51.640Z,13.50
2022-09-26T21:32:24.179Z,13.50
2022-09-26T21:35:17.339Z,13.48
2022-09-26T21:37:52.988Z,13.48
2022-09-26T21:40:26.906Z,13.44
2022-09-26T21:43:04.738Z,13.45
2022-09-26T21:45:37.076Z,13.44
2022-09-26T21:48:11.283Z,13.39
2022-09-26T21:50:58.179Z,13.37
2022-09-26T21:53:49.455Z,13.38
2022-09-26T21:56:26.132Z,13.37
2022-09-26T21:58:58.600Z,13.39
2022-09-26T22:01:32.089Z,13.39
2022-09-26T22:04:05.013Z,13.39
2022-09-26T22:06:37.559Z,13.40
2022-09-26T22:09:11.428Z,13.41
2022-09-26T22:11:44.942Z,13.41
2022-09-26T22:14:17.511Z,13.41
2022-09-26T22:16:50.037Z,13.38
2022-09-26T22:19:23.898Z,13.36
2022-09-26T22:21:57.224Z,13.34
2022-09-26T22:24:30.080Z,13.31
2022-09-26T22:27:03.650Z,13.34
2022-09-26T22:29:36.011Z,13.32
2022-09-26T22:32:08.936Z,13.29
2022-09-26T22:34:41.790Z,13.27
2022-09-26T22:37:14.855Z,13.25
2022-09-26T22:39:48.210Z,13.20
2022-09-26T22:42:21.768Z,13.19
2022-09-26T22:44:54.231Z,13.20
2022-09-26T22:47:26.722Z,13.20
2022-09-26T22:49:59.881Z,13.19
2022-09-26T22:52:32.226Z,13.19
2022-09-26T22:55:05.040Z,13.17
2022-09-26T22:57:38.402Z,13.15
2022-09-26T23:00:13.299Z,13.15
2022-09-26T23:02:47.234Z,13.15
2022-09-26T23:05:19.809Z,13.12
2022-09-26T23:07:56.756Z,13.12
2022-09-26T23:10:29.932Z,13.14
2022-09-26T23:13:02.910Z,13.15
2022-09-26T23:15:35.970Z,13.16
2022-09-26T23:18:09.673Z,13.19
2022-09-26T23:20:44.353Z,13.19
2022-09-26T23:23:16.937Z,13.18
2022-09-26T23:25:50.591Z,13.17
2022-09-26T23:28:23.024Z,13.13
2022-09-26T23:30:55.647Z,13.11
2022-09-26T23:33:28.145Z,13.12
2022-09-26T23:36:01.032Z,13.09
2022-09-26T23:38:35.226Z,13.07
2022-09-26T23:41:10.313Z,13.07
2022-09-26T23:43:43.846Z,13.06
2022-09-26T23:46:17.721Z,13.05
2022-09-26T23:48:50.214Z,13.06
2022-09-26T23:51:22.788Z,13.08
2022-09-26T23:53:56.342Z,13.10
2022-09-26T23:56:29.166Z,13.12
2022-09-26T23:59:02.336Z,13.10
